Kezdőlap
METAR-TAF:

METAR-TAF

Repülőterek :

Hobart, Ausztrália

földrajzi szélesség: 42-50S, földrajzi hosszúság: 147-29E, magasság: 4 m

Jelenlegi meteorológiai megfigyelések

A jelentés 35 perccel ezelõtt készült, 22:00 UTC
Kelet-északkeleti szél 3 kt
Hőmérséklet 9°C
Páratartalom 76%
Légköri nyomás 1018 hPa
Látótávolság 10 km, vagy több
Kevés felhő 4500 lábon

METAR: YMHB 262200Z 06003KT 9999 FEW045 09/05 Q1018

Idő: 08:35 (22:35 UTC)

Előrejelzés

A jelentés 2 órával és 30 perccel ezelõtt készült, 20:05 UTC
Az előrejelzés 26-én 21 óra UTC és 27-én 18 óra UTC között érvényes
Észak-északnyugati szél 10 kt
Látótávolság 10 km, vagy több
Szórványos felhőzet 4000 lábon

TAF: YMHB 262005Z 2621/2718 33010KT 9999 SCT040

Meteorológiai megfigyelések és előrejelzések több, mint 4000 repülőtéren (METAR és TAF jelentéseket).

A térképen piros és sárga pontok jelzik az elérhető meteorológiai állomásokat.

Mozgassa az egeret a pont fölött, hogy megjelenjen az állomás neve.

Azután kattintson az időjárási megfigyelések és előrejelzések megtekintéséhez.

A térkép megváltoztatása: kattintson a fekete keresztel jelölt zöld gombra ráközelítéshez, a vonallal jelölt zöld gombra távolításhoz, vagy a zöld nyilakra a szomszédos térképek eléréséhez.


METAR-TAF: